createdAt,value
2022-08-22T00:02:24.691Z,45.00
2022-08-22T00:02:55.722Z,45.00
2022-08-22T00:04:56.077Z,45.15
2022-08-22T00:07:31.462Z,45.31
2022-08-22T00:10:24.929Z,45.13
2022-08-22T00:12:54.907Z,45.03
2022-08-22T00:15:42.956Z,45.19
2022-08-22T00:18:13.168Z,44.96
2022-08-22T00:20:45.176Z,44.99
2022-08-22T00:23:17.489Z,44.92
2022-08-22T00:25:43.819Z,45.32
2022-08-22T00:28:17.625Z,45.05
2022-08-22T00:30:51.699Z,45.16
2022-08-22T00:33:21.977Z,45.21
2022-08-22T00:35:51.345Z,45.29
2022-08-22T00:38:23.847Z,45.17
2022-08-22T00:40:53.571Z,45.21
2022-08-22T00:43:34.955Z,45.32
2022-08-22T00:46:20.269Z,45.18
2022-08-22T00:48:46.582Z,45.05
2022-08-22T00:51:19.099Z,45.17
2022-08-22T00:53:57.157Z,45.06
2022-08-22T00:56:42.488Z,44.99
2022-08-22T00:59:51.349Z,45.05
2022-08-22T01:02:32.694Z,45.47
2022-08-22T01:05:17.485Z,44.96
2022-08-22T01:07:43.817Z,45.02
2022-08-22T01:10:27.438Z,45.14
2022-08-22T01:13:05.843Z,45.20
2022-08-22T01:15:34.987Z,45.19
2022-08-22T01:18:17.091Z,45.36
2022-08-22T01:20:58.149Z,45.41
2022-08-22T01:23:53.935Z,45.09
2022-08-22T01:26:20.260Z,45.33
2022-08-22T01:28:46.776Z,45.15
2022-08-22T01:31:13.162Z,45.43
2022-08-22T01:33:49.190Z,45.37
2022-08-22T01:36:34.137Z,45.21
2022-08-22T01:39:02.451Z,45.25
2022-08-22T01:41:28.827Z,45.29
2022-08-22T01:44:07.579Z,45.49
2022-08-22T01:47:03.568Z,45.30
2022-08-22T01:49:37.502Z,45.56
2022-08-22T01:52:19.620Z,45.59
2022-08-22T01:54:55.428Z,45.50
2022-08-22T01:57:26.203Z,45.38
2022-08-22T01:59:54.146Z,45.13
2022-08-22T02:02:26.018Z,45.51
2022-08-22T02:05:01.324Z,45.61
2022-08-22T02:07:48.346Z,45.53
2022-08-22T02:10:21.118Z,45.43
2022-08-22T02:13:01.300Z,45.32
2022-08-22T02:15:44.028Z,45.40
2022-08-22T02:18:14.365Z,45.48
2022-08-22T02:20:40.731Z,45.51
2022-08-22T02:23:25.962Z,45.58
2022-08-22T02:26:01.454Z,45.44
2022-08-22T02:28:57.111Z,45.41
2022-08-22T02:31:33.543Z,45.68
2022-08-22T02:34:02.242Z,45.29
2022-08-22T02:36:32.210Z,45.37
2022-08-22T02:39:01.710Z,45.21
2022-08-22T02:41:28.153Z,45.62
2022-08-22T02:44:01.541Z,45.33
2022-08-22T02:46:46.943Z,45.62
2022-08-22T02:49:19.676Z,45.37
2022-08-22T02:51:57.542Z,45.28
2022-08-22T02:54:46.835Z,45.55
2022-08-22T02:57:24.739Z,45.56
2022-08-22T03:00:31.289Z,45.40
2022-08-22T03:03:03.788Z,45.35
2022-08-22T03:05:30.093Z,45.65
2022-08-22T03:08:02.759Z,45.88
2022-08-22T03:10:35.081Z,45.83
2022-08-22T03:13:01.515Z,45.61
2022-08-22T03:15:30.919Z,45.54
2022-08-22T03:18:06.887Z,45.75
2022-08-22T03:20:36.536Z,45.67
2022-08-22T03:23:07.328Z,45.78
2022-08-22T03:25:38.058Z,45.70
2022-08-22T03:28:07.408Z,45.65
2022-08-22T03:30:43.325Z,45.76
2022-08-22T03:33:12.820Z,45.94
2022-08-22T03:35:50.671Z,45.55
2022-08-22T03:38:17.025Z,45.98
2022-08-22T03:40:43.350Z,45.49
2022-08-22T03:43:28.812Z,45.90
2022-08-22T03:45:57.915Z,45.82
2022-08-22T03:48:43.136Z,45.90
2022-08-22T03:51:18.587Z,45.68
2022-08-22T03:53:51.197Z,45.96
2022-08-22T03:56:20.356Z,45.63
2022-08-22T03:59:02.910Z,45.67
2022-08-22T04:01:55.433Z,45.90
2022-08-22T04:04:40.490Z,45.89
2022-08-22T04:07:28.406Z,45.84
2022-08-22T04:10:11.274Z,45.64
2022-08-22T04:12:43.811Z,45.64
2022-08-22T04:15:25.407Z,45.75
2022-08-22T04:18:02.250Z,45.78
2022-08-22T04:20:55.152Z,45.92
2022-08-22T04:23:34.015Z,45.77
2022-08-22T04:26:20.963Z,45.65
2022-08-22T04:28:53.576Z,45.87
2022-08-22T04:31:46.409Z,45.84
2022-08-22T04:34:29.650Z,45.73
2022-08-22T04:37:09.899Z,45.79
2022-08-22T04:39:48.149Z,45.73
2022-08-22T04:42:36.696Z,45.72
2022-08-22T04:45:16.934Z,45.91
2022-08-22T04:47:47.210Z,45.73
2022-08-22T04:50:43.011Z,45.82
2022-08-22T04:53:14.926Z,45.56
2022-08-22T04:56:07.257Z,45.74
2022-08-22T04:58:41.575Z,45.98
2022-08-22T05:01:17.208Z,45.91
2022-08-22T05:03:53.676Z,46.14
2022-08-22T05:06:21.502Z,45.81
2022-08-22T05:08:53.632Z,46.20
2022-08-22T05:11:22.568Z,46.04
2022-08-22T05:13:53.491Z,46.03
2022-08-22T05:16:32.569Z,46.03
2022-08-22T05:19:02.683Z,45.76
2022-08-22T05:21:32.273Z,45.61
2022-08-22T05:24:01.447Z,45.61
2022-08-22T05:26:28.796Z,46.11
2022-08-22T05:28:59.619Z,46.02
2022-08-22T05:31:32.257Z,45.82
2022-08-22T05:34:05.925Z,45.90
2022-08-22T05:36:35.477Z,46.04
2022-08-22T05:39:04.938Z,45.97
2022-08-22T05:41:35.199Z,45.99
2022-08-22T05:44:02.466Z,46.02
2022-08-22T05:46:34.821Z,46.04
2022-08-22T05:49:03.158Z,46.00
2022-08-22T05:51:35.815Z,45.96
2022-08-22T05:54:19.715Z,45.77
2022-08-22T05:56:50.508Z,46.17
2022-08-22T05:59:34.454Z,45.73
2022-08-22T06:02:03.789Z,45.97
2022-08-22T06:04:51.888Z,46.08
2022-08-22T06:07:22.237Z,45.96
2022-08-22T06:09:48.566Z,45.85
2022-08-22T06:12:22.089Z,45.66
2022-08-22T06:14:55.019Z,45.77
2022-08-22T06:17:26.669Z,46.03
2022-08-22T06:19:54.330Z,46.05
2022-08-22T06:22:23.150Z,45.73
2022-08-22T06:24:50.812Z,45.61
2022-08-22T06:27:19.686Z,45.64
2022-08-22T06:29:49.226Z,45.86
2022-08-22T06:32:16.841Z,45.78
2022-08-22T06:35:06.606Z,45.94
2022-08-22T06:37:36.677Z,45.74
2022-08-22T06:40:05.257Z,46.23
2022-08-22T06:42:32.689Z,45.72
2022-08-22T06:45:22.068Z,46.08
2022-08-22T06:48:00.545Z,46.10
2022-08-22T06:50:32.285Z,45.82
2022-08-22T06:52:58.647Z,45.64
2022-08-22T06:55:26.496Z,46.15
2022-08-22T06:58:03.107Z,45.76
2022-08-22T07:00:30.649Z,45.73
2022-08-22T07:03:06.344Z,45.66
2022-08-22T07:05:37.895Z,45.67
2022-08-22T07:08:06.198Z,46.08
2022-08-22T07:10:32.587Z,46.08
2022-08-22T07:12:58.969Z,46.01
2022-08-22T07:15:35.335Z,45.75
2022-08-22T07:18:10.401Z,46.27
2022-08-22T07:20:41.821Z,46.27
2022-08-22T07:23:23.689Z,45.93
2022-08-22T07:25:58.336Z,46.10
2022-08-22T07:28:50.873Z,46.08
2022-08-22T07:31:30.950Z,45.68
2022-08-22T07:34:08.738Z,45.58
2022-08-22T07:36:57.920Z,46.04
2022-08-22T07:39:37.031Z,46.05
2022-08-22T07:42:11.198Z,46.08
2022-08-22T07:44:47.558Z,45.79
2022-08-22T07:47:18.103Z,46.04
2022-08-22T07:49:54.942Z,45.80
2022-08-22T07:52:22.114Z,46.09
2022-08-22T07:54:57.978Z,45.97
2022-08-22T07:57:32.561Z,46.10
2022-08-22T07:59:59.994Z,46.20
2022-08-22T08:02:26.760Z,46.02
2022-08-22T08:04:55.070Z,45.97
2022-08-22T08:07:23.586Z,46.04
2022-08-22T08:09:52.991Z,46.15
2022-08-22T08:12:21.931Z,46.24
2022-08-22T08:14:52.157Z,46.26
2022-08-22T08:17:22.641Z,46.10
2022-08-22T08:19:50.682Z,46.29
2022-08-22T08:22:19.802Z,46.37
2022-08-22T08:24:47.126Z,46.29
2022-08-22T08:27:34.152Z,46.33
2022-08-22T08:30:19.060Z,46.34
2022-08-22T08:32:57.530Z,46.36
2022-08-22T08:36:02.923Z,46.10
2022-08-22T08:38:32.742Z,46.59
2022-08-22T08:41:29.643Z,46.38
2022-08-22T08:43:55.988Z,46.61
2022-08-22T08:46:41.399Z,46.42
2022-08-22T08:49:21.006Z,46.59
2022-08-22T08:51:53.502Z,46.77
2022-08-22T08:54:23.731Z,46.43
2022-08-22T08:57:11.751Z,46.97
2022-08-22T08:59:49.318Z,46.84
2022-08-22T09:02:23.499Z,46.45
2022-08-22T09:05:08.876Z,46.84
2022-08-22T09:07:36.131Z,46.80
2022-08-22T09:10:16.529Z,46.88
2022-08-22T09:12:56.049Z,46.98
2022-08-22T09:15:39.461Z,46.66
2022-08-22T09:18:12.129Z,46.48
2022-08-22T09:20:47.564Z,46.93
2022-08-22T09:23:24.188Z,46.48
2022-08-22T09:25:55.813Z,46.84
2022-08-22T09:28:39.012Z,46.90
2022-08-22T09:31:16.619Z,46.86
2022-08-22T09:33:54.962Z,46.85
2022-08-22T09:36:30.003Z,46.70
2022-08-22T09:39:03.056Z,46.47
2022-08-22T09:41:52.925Z,46.97
2022-08-22T09:44:24.398Z,46.79
2022-08-22T09:46:58.075Z,46.77
2022-08-22T09:49:34.791Z,46.75
2022-08-22T09:52:15.432Z,46.55
2022-08-22T09:55:08.150Z,46.40
2022-08-22T09:57:47.844Z,45.94
2022-08-22T10:00:16.232Z,46.32
2022-08-22T10:02:51.612Z,46.20
2022-08-22T10:05:43.871Z,46.06
2022-08-22T10:08:20.034Z,46.11
2022-08-22T10:11:06.465Z,45.76
2022-08-22T10:13:37.238Z,45.99
2022-08-22T10:16:13.059Z,45.53
2022-08-22T10:18:43.970Z,45.59
2022-08-22T10:21:39.697Z,45.45
2022-08-22T10:24:07.265Z,45.47
2022-08-22T10:26:39.245Z,45.30
2022-08-22T10:29:16.268Z,45.52
2022-08-22T10:31:58.865Z,44.88
2022-08-22T10:34:29.048Z,44.99
2022-08-22T10:37:07.798Z,44.94
2022-08-22T10:39:47.448Z,44.79
2022-08-22T10:42:28.470Z,44.80
2022-08-22T10:44:59.548Z,44.70
2022-08-22T10:47:33.914Z,44.56
2022-08-22T10:50:10.821Z,44.70
2022-08-22T10:53:29.539Z,44.52
2022-08-22T10:56:05.458Z,44.72
2022-08-22T10:58:34.620Z,44.74
2022-08-22T11:01:37.001Z,45.05
2022-08-22T11:04:02.599Z,44.95
2022-08-22T11:06:50.408Z,44.91
2022-08-22T11:09:35.774Z,44.44
2022-08-22T11:12:21.291Z,44.56
2022-08-22T11:14:50.595Z,44.50
2022-08-22T11:17:40.661Z,44.18
2022-08-22T11:20:31.872Z,44.30
2022-08-22T11:23:14.184Z,44.38
2022-08-22T11:25:41.361Z,44.16
2022-08-22T11:28:21.084Z,44.26
2022-08-22T11:30:57.843Z,44.16
2022-08-22T11:33:32.451Z,43.83
2022-08-22T11:36:26.128Z,43.22
2022-08-22T11:39:18.655Z,43.03
2022-08-22T11:41:53.205Z,42.81
2022-08-22T11:44:27.300Z,42.93
2022-08-22T11:46:57.244Z,43.09
2022-08-22T11:49:32.923Z,42.78
2022-08-22T11:52:09.986Z,43.19
2022-08-22T11:54:42.079Z,43.43
2022-08-22T11:57:13.603Z,43.26
2022-08-22T11:59:43.357Z,43.26
2022-08-22T12:02:14.835Z,43.38
2022-08-22T12:04:45.772Z,43.42
2022-08-22T12:07:32.235Z,43.54
2022-08-22T12:10:00.963Z,43.49
2022-08-22T12:12:36.569Z,43.16
2022-08-22T12:15:11.945Z,43.24
2022-08-22T12:17:55.267Z,43.12
2022-08-22T12:20:45.332Z,43.15
2022-08-22T12:23:48.789Z,43.16
2022-08-22T12:26:34.824Z,43.25
2022-08-22T12:29:15.572Z,43.01
2022-08-22T12:31:58.369Z,42.75
2022-08-22T12:34:34.813Z,42.34
2022-08-22T12:37:11.923Z,42.39
2022-08-22T12:39:46.585Z,42.36
2022-08-22T12:42:42.963Z,42.27
2022-08-22T12:45:12.511Z,42.04
2022-08-22T12:47:42.242Z,42.41
2022-08-22T12:50:28.492Z,42.38
2022-08-22T12:53:15.926Z,42.48
2022-08-22T12:55:59.771Z,42.55
2022-08-22T12:58:34.579Z,42.44
2022-08-22T13:01:05.466Z,42.11
2022-08-22T13:03:35.349Z,41.99
2022-08-22T13:06:24.799Z,42.33
2022-08-22T13:08:52.184Z,42.03
2022-08-22T13:11:23.255Z,42.12
2022-08-22T13:13:56.622Z,42.36
2022-08-22T13:16:24.898Z,42.14
2022-08-22T13:18:56.861Z,41.86
2022-08-22T13:21:28.861Z,41.81
2022-08-22T13:24:10.357Z,41.83
2022-08-22T13:26:45.138Z,42.05
2022-08-22T13:29:25.800Z,41.89
2022-08-22T13:32:01.588Z,41.38
2022-08-22T13:34:39.598Z,41.51
2022-08-22T13:37:07.883Z,41.64
2022-08-22T13:39:38.690Z,41.84
2022-08-22T13:42:07.614Z,41.49
2022-08-22T13:44:46.482Z,41.62
2022-08-22T13:47:18.261Z,41.59
2022-08-22T13:49:52.954Z,41.38
2022-08-22T13:52:38.023Z,41.39
2022-08-22T13:55:18.923Z,41.23
2022-08-22T13:57:54.515Z,41.60
2022-08-22T14:00:29.938Z,41.55
2022-08-22T14:03:05.401Z,41.51
2022-08-22T14:05:38.241Z,41.40
2022-08-22T14:08:12.559Z,41.56
2022-08-22T14:10:45.359Z,41.45
2022-08-22T14:13:11.879Z,41.42
2022-08-22T14:15:45.749Z,41.00
2022-08-22T14:18:30.526Z,41.43
2022-08-22T14:21:16.661Z,41.44
2022-08-22T14:23:43.618Z,41.36
2022-08-22T14:26:10.102Z,41.37
2022-08-22T14:28:39.298Z,41.02
2022-08-22T14:31:13.299Z,40.94
2022-08-22T14:33:46.781Z,41.39
2022-08-22T14:36:22.644Z,41.23
2022-08-22T14:38:56.293Z,41.30
2022-08-22T14:41:22.636Z,41.04
2022-08-22T14:43:58.846Z,41.21
2022-08-22T14:46:49.424Z,40.68
2022-08-22T14:49:18.787Z,41.18
2022-08-22T14:51:50.787Z,40.97
2022-08-22T14:54:21.294Z,41.04
2022-08-22T14:56:49.163Z,41.09
2022-08-22T14:59:24.531Z,41.02
2022-08-22T15:01:53.654Z,40.86
2022-08-22T15:04:23.941Z,40.66
2022-08-22T15:06:57.847Z,40.77
2022-08-22T15:09:32.729Z,40.77
2022-08-22T15:12:01.776Z,40.71
2022-08-22T15:14:35.722Z,40.64
2022-08-22T15:17:04.680Z,40.28
2022-08-22T15:19:35.350Z,40.39
2022-08-22T15:22:19.114Z,40.25
2022-08-22T15:25:02.318Z,40.25
2022-08-22T15:27:29.783Z,40.23
2022-08-22T15:29:58.686Z,39.97
2022-08-22T15:32:27.401Z,40.28
2022-08-22T15:35:04.377Z,40.30
2022-08-22T15:37:32.782Z,40.28
2022-08-22T15:40:12.116Z,40.05
2022-08-22T15:42:43.993Z,39.69
2022-08-22T15:45:39.494Z,39.87
2022-08-22T15:48:13.349Z,39.81
2022-08-22T15:50:54.439Z,39.74
2022-08-22T15:53:21.032Z,39.48
2022-08-22T15:56:05.114Z,39.71
2022-08-22T15:58:32.303Z,38.98
2022-08-22T16:01:05.860Z,39.16
2022-08-22T16:04:02.102Z,39.06
2022-08-22T16:06:43.947Z,39.09
2022-08-22T16:09:29.563Z,39.44
2022-08-22T16:11:57.223Z,39.36
2022-08-22T16:14:35.767Z,39.05
2022-08-22T16:17:02.238Z,39.41
2022-08-22T16:19:29.756Z,39.46
2022-08-22T16:21:56.115Z,39.37
2022-08-22T16:24:22.475Z,39.63
2022-08-22T16:26:49.256Z,39.66
2022-08-22T16:29:41.502Z,39.81
2022-08-22T16:32:11.287Z,39.50
2022-08-22T16:34:37.629Z,39.84
2022-08-22T16:37:17.934Z,39.70
2022-08-22T16:39:49.832Z,39.57
2022-08-22T16:42:16.221Z,39.63
2022-08-22T16:44:46.773Z,39.31
2022-08-22T16:47:21.655Z,39.41
2022-08-22T16:49:50.732Z,39.23
2022-08-22T16:52:23.304Z,39.46
2022-08-22T16:54:51.171Z,39.66
2022-08-22T16:57:20.281Z,39.46
2022-08-22T16:59:59.104Z,39.50
2022-08-22T17:02:33.184Z,39.68
2022-08-22T17:05:15.442Z,39.55
2022-08-22T17:08:03.138Z,39.74
2022-08-22T17:10:46.504Z,39.30
2022-08-22T17:13:12.822Z,39.13
2022-08-22T17:15:39.183Z,39.60
2022-08-22T17:18:14.327Z,39.49
2022-08-22T17:20:49.447Z,39.39
2022-08-22T17:23:41.677Z,39.58
2022-08-22T17:26:07.990Z,39.38
2022-08-22T17:28:54.223Z,39.77
2022-08-22T17:31:31.569Z,39.53
2022-08-22T17:34:16.269Z,39.66
2022-08-22T17:36:42.629Z,39.70
2022-08-22T17:39:20.548Z,39.54
2022-08-22T17:41:46.947Z,39.74
2022-08-22T17:44:22.079Z,39.64
2022-08-22T17:46:57.114Z,40.05
2022-08-22T17:49:41.553Z,39.85
2022-08-22T17:52:16.325Z,40.13
2022-08-22T17:54:49.648Z,40.12
2022-08-22T17:57:28.143Z,40.19
2022-08-22T17:59:54.621Z,40.10
2022-08-22T18:02:24.730Z,40.02
2022-08-22T18:05:03.534Z,40.34
2022-08-22T18:07:34.898Z,40.06
2022-08-22T18:10:19.879Z,40.31
2022-08-22T18:13:20.603Z,40.12
2022-08-22T18:16:13.115Z,40.55
2022-08-22T18:18:48.618Z,40.73
2022-08-22T18:21:37.376Z,40.66
2022-08-22T18:24:09.543Z,40.75
2022-08-22T18:26:45.942Z,40.91
2022-08-22T18:29:16.905Z,41.20
2022-08-22T18:31:53.428Z,41.23
2022-08-22T18:34:40.873Z,41.52
2022-08-22T18:37:15.355Z,41.63
2022-08-22T18:39:54.970Z,42.01
2022-08-22T18:42:36.833Z,42.11
2022-08-22T18:45:03.487Z,42.34
2022-08-22T18:47:32.694Z,42.28
2022-08-22T18:50:00.970Z,42.39
2022-08-22T18:52:27.320Z,42.63
2022-08-22T18:55:12.599Z,42.61
2022-08-22T18:58:00.477Z,42.47
2022-08-22T19:00:46.247Z,42.40
2022-08-22T19:03:25.163Z,42.60
2022-08-22T19:06:10.576Z,42.39
2022-08-22T19:08:51.661Z,42.35
2022-08-22T19:11:35.153Z,42.58
2022-08-22T19:14:06.339Z,42.19
2022-08-22T19:16:45.433Z,42.31
2022-08-22T19:19:17.656Z,42.42
2022-08-22T19:22:19.646Z,42.10
2022-08-22T19:25:01.335Z,42.62
2022-08-22T19:27:31.324Z,42.31
2022-08-22T19:29:59.755Z,42.33
2022-08-22T19:32:44.427Z,42.58
2022-08-22T19:35:19.651Z,42.86
2022-08-22T19:37:54.760Z,42.92
2022-08-22T19:40:40.542Z,42.81
2022-08-22T19:43:22.320Z,42.58
2022-08-22T19:45:49.420Z,42.79
2022-08-22T19:48:15.854Z,43.08
2022-08-22T19:50:43.009Z,43.15
2022-08-22T19:53:09.758Z,42.95
2022-08-22T19:55:36.667Z,42.97
2022-08-22T19:58:12.950Z,42.85
2022-08-22T20:00:58.125Z,43.13
2022-08-22T20:03:43.628Z,43.27
2022-08-22T20:06:33.650Z,43.00
2022-08-22T20:09:04.049Z,43.38
2022-08-22T20:11:39.370Z,43.38
2022-08-22T20:14:12.071Z,43.37
2022-08-22T20:16:58.109Z,43.44
2022-08-22T20:19:36.235Z,43.40
2022-08-22T20:22:03.821Z,43.37
2022-08-22T20:24:41.070Z,43.35
2022-08-22T20:27:15.131Z,43.31
2022-08-22T20:29:45.063Z,42.85
2022-08-22T20:32:14.648Z,42.93
2022-08-22T20:34:42.523Z,43.48
2022-08-22T20:37:29.479Z,42.85
2022-08-22T20:40:09.880Z,43.41
2022-08-22T20:43:00.000Z,43.38
2022-08-22T20:45:28.002Z,43.28
2022-08-22T20:47:57.308Z,43.33
2022-08-22T20:50:24.463Z,43.47
2022-08-22T20:53:07.599Z,43.19
2022-08-22T20:55:35.994Z,43.08
2022-08-22T20:58:04.807Z,43.04
2022-08-22T21:00:39.406Z,43.43
2022-08-22T21:03:15.146Z,43.29
2022-08-22T21:05:43.214Z,43.25
2022-08-22T21:08:15.678Z,43.24
2022-08-22T21:11:00.803Z,43.20
2022-08-22T21:13:28.654Z,43.25
2022-08-22T21:16:02.579Z,43.42
2022-08-22T21:18:32.130Z,43.08
2022-08-22T21:21:08.118Z,43.39
2022-08-22T21:23:44.820Z,43.41
2022-08-22T21:26:22.268Z,43.42
2022-08-22T21:28:54.883Z,43.58
2022-08-22T21:31:23.440Z,43.62
2022-08-22T21:33:51.575Z,43.82
2022-08-22T21:36:20.107Z,43.50
2022-08-22T21:38:48.759Z,43.58
2022-08-22T21:41:23.116Z,43.73
2022-08-22T21:43:53.946Z,43.49
2022-08-22T21:46:25.066Z,43.57
2022-08-22T21:48:59.649Z,43.20
2022-08-22T21:51:31.980Z,43.56
2022-08-22T21:54:19.095Z,43.49
2022-08-22T21:56:45.662Z,43.39
2022-08-22T21:59:19.688Z,43.26
2022-08-22T22:01:51.517Z,43.17
2022-08-22T22:04:17.987Z,43.50
2022-08-22T22:06:44.546Z,43.55
2022-08-22T22:09:15.061Z,43.51
2022-08-22T22:11:41.781Z,43.66
2022-08-22T22:14:08.623Z,43.62
2022-08-22T22:16:35.137Z,43.45
2022-08-22T22:19:01.500Z,43.92
2022-08-22T22:21:28.150Z,43.59
2022-08-22T22:23:54.639Z,43.94
2022-08-22T22:26:25.462Z,43.82
2022-08-22T22:28:51.974Z,43.58
2022-08-22T22:31:18.439Z,43.87
2022-08-22T22:33:45.351Z,44.10
2022-08-22T22:36:37.900Z,43.66
2022-08-22T22:39:05.294Z,43.82
2022-08-22T22:41:31.719Z,43.87
2022-08-22T22:43:58.188Z,43.68
2022-08-22T22:46:26.735Z,44.13
2022-08-22T22:48:53.812Z,44.03
2022-08-22T22:51:20.197Z,43.98
2022-08-22T22:53:46.588Z,44.15
2022-08-22T22:56:16.639Z,43.99
2022-08-22T22:58:43.566Z,44.11
2022-08-22T23:01:17.301Z,44.11
2022-08-22T23:03:44.870Z,43.94
2022-08-22T23:06:15.975Z,44.05
2022-08-22T23:08:42.542Z,43.65
2022-08-22T23:11:15.830Z,43.74
2022-08-22T23:13:43.055Z,44.12
2022-08-22T23:16:11.976Z,43.99
2022-08-22T23:18:38.361Z,43.84
2022-08-22T23:21:10.640Z,43.87
2022-08-22T23:23:37.035Z,43.99
2022-08-22T23:26:03.436Z,44.31
2022-08-22T23:28:29.784Z,44.24
2022-08-22T23:30:56.130Z,44.13
2022-08-22T23:33:22.486Z,43.87
2022-08-22T23:35:48.925Z,44.22
2022-08-22T23:38:15.254Z,44.27
2022-08-22T23:40:46.495Z,44.36
2022-08-22T23:43:12.881Z,44.28
2022-08-22T23:45:39.222Z,44.23
2022-08-22T23:48:05.630Z,44.34
2022-08-22T23:50:33.811Z,44.13
2022-08-22T23:53:00.148Z,43.94
2022-08-22T23:55:26.540Z,44.30
2022-08-22T23:57:52.876Z,44.31
